createdAt,value
2022-10-24T00:09:14.120Z,82.76
2022-10-24T00:14:18.141Z,82.72
2022-10-24T00:19:21.042Z,82.86
2022-10-24T00:24:25.165Z,83.16
2022-10-24T00:29:29.237Z,83.08
2022-10-24T00:34:31.913Z,83.07
2022-10-24T00:39:34.683Z,83.07
2022-10-24T00:44:41.198Z,83.24
2022-10-24T00:49:46.869Z,83.34
2022-10-24T00:54:50.576Z,83.52
2022-10-24T00:59:56.717Z,83.40
2022-10-24T01:04:59.364Z,83.21
2022-10-24T01:10:20.134Z,83.24
2022-10-24T01:15:29.567Z,83.27
2022-10-24T01:20:56.230Z,83.42
2022-10-24T01:26:10.096Z,83.42
2022-10-24T01:31:19.243Z,83.60
2022-10-24T01:36:26.966Z,83.84
2022-10-24T01:41:30.351Z,84.01
2022-10-24T01:46:36.810Z,83.95
2022-10-24T01:51:40.547Z,84.06
2022-10-24T01:56:43.120Z,84.10
2022-10-24T02:01:47.191Z,84.14
2022-10-24T02:06:50.004Z,84.17
2022-10-24T02:11:54.067Z,84.54
2022-10-24T02:16:58.073Z,84.51
2022-10-24T02:22:05.104Z,84.68
2022-10-24T02:27:11.080Z,84.87
2022-10-24T02:32:19.588Z,84.78
2022-10-24T02:37:23.386Z,84.77
2022-10-24T02:47:37.081Z,84.86
2022-10-24T02:52:40.514Z,84.69
2022-10-24T02:57:43.155Z,84.58
2022-10-24T03:02:47.359Z,84.26
2022-10-24T03:07:50.487Z,84.16
2022-10-24T03:12:53.144Z,83.72
2022-10-24T03:17:57.139Z,83.59
2022-10-24T03:22:59.957Z,83.70
2022-10-24T03:28:02.639Z,83.83
2022-10-24T03:33:06.745Z,84.07
2022-10-24T03:38:09.472Z,84.01
2022-10-24T03:43:12.301Z,84.01
2022-10-24T03:48:16.461Z,83.93
2022-10-24T03:53:19.188Z,84.01
2022-10-24T03:58:21.808Z,84.12
2022-10-24T04:03:26.039Z,84.16
2022-10-24T04:08:28.653Z,84.28
2022-10-24T04:13:31.369Z,84.28
2022-10-24T04:18:35.405Z,84.16
2022-10-24T04:23:41.043Z,84.17
2022-10-24T04:28:43.870Z,84.54
2022-10-24T04:33:48.045Z,84.80
2022-10-24T04:38:50.739Z,84.88
2022-10-24T04:43:53.675Z,84.75
2022-10-24T04:48:57.576Z,84.86
2022-10-24T04:54:00.238Z,84.88
2022-10-24T04:59:02.927Z,84.89
2022-10-24T05:04:08.128Z,85.21
2022-10-24T05:09:10.727Z,85.12
2022-10-24T05:14:14.235Z,85.25
2022-10-24T05:19:19.643Z,85.15
2022-10-24T05:24:22.357Z,85.22
2022-10-24T05:29:25.360Z,84.99
2022-10-24T05:34:29.502Z,84.81
2022-10-24T05:39:32.152Z,84.94
2022-10-24T05:44:34.733Z,84.96
2022-10-24T05:49:38.782Z,84.83
2022-10-24T05:54:55.111Z,84.92
2022-10-24T06:00:06.070Z,84.80
2022-10-24T06:05:16.329Z,84.96
2022-10-24T06:10:19.461Z,84.97
2022-10-24T06:15:22.233Z,84.90
2022-10-24T06:20:26.298Z,84.91
2022-10-24T06:25:29.073Z,85.05
2022-10-24T06:30:31.705Z,85.01
2022-10-24T06:35:35.720Z,84.83
2022-10-24T06:40:39.988Z,84.88
2022-10-24T06:45:42.603Z,84.74
2022-10-24T06:50:46.617Z,84.61
2022-10-24T06:55:49.285Z,84.55
2022-10-24T07:00:51.974Z,84.52
2022-10-24T07:05:55.990Z,84.50
2022-10-24T07:10:58.733Z,84.22
2022-10-24T07:16:01.409Z,84.03
2022-10-24T07:21:06.675Z,83.84
2022-10-24T07:26:12.371Z,83.67
2022-10-24T07:31:18.088Z,83.25
2022-10-24T07:36:23.207Z,83.29
2022-10-24T07:41:26.889Z,83.24
2022-10-24T07:46:29.900Z,83.22
2022-10-24T07:51:33.903Z,83.04
2022-10-24T07:56:36.668Z,83.13
2022-10-24T08:01:39.396Z,82.88
2022-10-24T08:06:45.011Z,83.01
2022-10-24T08:11:47.640Z,82.99
2022-10-24T08:16:50.318Z,83.10
2022-10-24T08:21:54.408Z,82.98
2022-10-24T08:26:57.157Z,83.18
2022-10-24T08:31:59.805Z,82.97
2022-10-24T08:37:04.693Z,82.74
2022-10-24T08:42:09.726Z,82.59
2022-10-24T08:47:19.988Z,82.48
2022-10-24T08:52:29.220Z,82.40
2022-10-24T09:02:45.886Z,82.10
2022-10-24T09:07:53.300Z,82.07
2022-10-24T09:12:55.914Z,81.96
2022-10-24T09:17:59.408Z,82.03
2022-10-24T09:23:05.841Z,82.04
2022-10-24T09:28:08.601Z,81.80
2022-10-24T09:33:21.324Z,82.03
2022-10-24T09:38:34.060Z,81.89
2022-10-24T09:43:41.259Z,81.83
2022-10-24T09:48:50.944Z,81.77
2022-10-24T09:54:26.224Z,81.60
2022-10-24T09:59:33.568Z,81.69
2022-10-24T10:04:36.171Z,81.41
2022-10-24T10:09:52.679Z,81.36
2022-10-24T10:14:59.521Z,81.60
2022-10-24T10:20:03.275Z,81.49
2022-10-24T10:30:22.979Z,81.61
2022-10-24T10:35:29.362Z,81.65
2022-10-24T10:40:35.821Z,81.68
2022-10-24T10:45:44.308Z,81.61
2022-10-24T10:50:50.433Z,81.59
2022-10-24T10:55:59.341Z,81.37
2022-10-24T11:01:09.395Z,81.22
2022-10-24T11:06:20.506Z,81.36
2022-10-24T11:11:27.646Z,81.29
2022-10-24T11:16:30.604Z,81.10
2022-10-24T11:21:34.522Z,81.27
2022-10-24T11:26:41.790Z,81.42
2022-10-24T11:31:47.041Z,81.50
2022-10-24T11:36:55.815Z,81.53
2022-10-24T11:42:03.018Z,81.41
2022-10-24T11:47:28.187Z,81.60
2022-10-24T11:52:35.893Z,81.69
2022-10-24T11:57:41.081Z,81.63
2022-10-24T12:03:02.461Z,81.63
2022-10-24T12:08:17.111Z,81.60
2022-10-24T12:13:36.755Z,81.39
2022-10-24T12:18:40.811Z,81.40
2022-10-24T12:23:44.105Z,80.91
2022-10-24T12:28:56.285Z,80.72
2022-10-24T12:34:48.787Z,80.39
2022-10-24T12:39:57.567Z,80.01
2022-10-24T12:45:28.755Z,79.84
2022-10-24T12:51:00.665Z,79.50
2022-10-24T12:56:15.655Z,79.56
2022-10-24T13:01:29.669Z,79.28
2022-10-24T13:06:35.403Z,79.01
2022-10-24T13:11:52.196Z,78.98
2022-10-24T13:17:03.021Z,78.92
2022-10-24T13:22:06.209Z,78.84
2022-10-24T13:27:24.823Z,78.72
2022-10-24T13:32:35.707Z,78.51
2022-10-24T13:37:43.479Z,78.51
2022-10-24T13:42:51.505Z,78.33
2022-10-24T13:47:58.074Z,78.23
2022-10-24T13:53:03.243Z,78.30
2022-10-24T13:58:11.770Z,78.19
2022-10-24T14:03:18.001Z,78.19
2022-10-24T14:08:24.069Z,78.15
2022-10-24T14:13:28.177Z,78.02
2022-10-24T14:18:32.898Z,77.95
2022-10-24T14:23:37.338Z,77.89
2022-10-24T14:28:45.308Z,77.85
2022-10-24T14:33:51.539Z,77.62
2022-10-24T14:38:57.487Z,77.67
2022-10-24T14:44:00.871Z,77.69
2022-10-24T14:49:21.327Z,77.74
2022-10-24T14:54:26.092Z,77.72
2022-10-24T14:59:30.174Z,77.55
2022-10-24T15:04:41.083Z,77.58
2022-10-24T15:09:57.900Z,77.84
2022-10-24T15:15:22.495Z,77.64
2022-10-24T15:20:29.900Z,77.59
2022-10-24T15:25:36.747Z,77.79
2022-10-24T15:30:42.367Z,77.24
2022-10-24T15:35:46.376Z,77.08
2022-10-24T15:40:49.587Z,77.63
2022-10-24T15:45:52.659Z,77.88
2022-10-24T15:50:59.361Z,78.12
2022-10-24T15:56:02.026Z,78.38
2022-10-24T16:01:04.944Z,78.53
2022-10-24T16:06:09.179Z,78.79
2022-10-24T16:11:12.937Z,78.86
2022-10-24T16:16:15.528Z,79.03
2022-10-24T16:21:20.827Z,79.27
2022-10-24T16:26:23.445Z,79.49
2022-10-24T16:31:26.149Z,79.54
2022-10-24T16:36:30.773Z,79.65
2022-10-24T16:41:33.556Z,79.74
2022-10-24T16:46:36.174Z,79.78
2022-10-24T16:51:43.287Z,79.91
2022-10-24T16:56:52.503Z,80.04
2022-10-24T17:01:56.620Z,80.11
2022-10-24T17:07:00.694Z,80.18
2022-10-24T17:12:03.556Z,80.26
2022-10-24T17:17:07.935Z,80.50
2022-10-24T17:22:12.631Z,80.63
2022-10-24T17:27:16.817Z,80.77
2022-10-24T17:32:19.736Z,81.00
2022-10-24T17:37:28.055Z,81.22
2022-10-24T17:42:30.914Z,81.26
2022-10-24T17:47:33.791Z,81.29
2022-10-24T17:52:40.153Z,81.54
2022-10-24T17:57:42.823Z,81.51
2022-10-24T18:02:47.183Z,81.80
2022-10-24T18:07:53.357Z,81.71
2022-10-24T18:12:56.100Z,82.03
2022-10-24T18:17:58.915Z,81.99
2022-10-24T18:23:03.148Z,82.02
2022-10-24T18:28:06.166Z,82.00
2022-10-24T18:33:08.818Z,82.18
2022-10-24T18:38:12.845Z,82.06
2022-10-24T18:43:16.170Z,81.90
2022-10-24T18:48:19.619Z,82.09
2022-10-24T18:53:25.772Z,82.21
2022-10-24T18:58:28.645Z,82.11
2022-10-24T19:03:35.677Z,82.39
2022-10-24T19:08:39.901Z,82.53
2022-10-24T19:13:44.858Z,82.57
2022-10-24T19:18:53.133Z,82.69
2022-10-24T19:23:57.126Z,82.93
2022-10-24T19:29:02.279Z,83.12
2022-10-24T19:34:07.490Z,83.08
2022-10-24T19:39:11.696Z,83.20
2022-10-24T19:44:15.567Z,83.26
2022-10-24T19:49:18.413Z,83.22
2022-10-24T19:54:22.355Z,83.28
2022-10-24T19:59:25.790Z,83.40
2022-10-24T20:04:28.624Z,83.36
2022-10-24T20:09:32.612Z,83.36
2022-10-24T20:14:35.301Z,83.29
2022-10-24T20:19:37.995Z,83.23
2022-10-24T20:24:41.974Z,83.45
2022-10-24T20:29:44.597Z,83.43
2022-10-24T20:34:47.439Z,83.53
2022-10-24T20:39:51.589Z,83.56
2022-10-24T20:44:54.348Z,83.53
2022-10-24T20:49:57.649Z,83.47
2022-10-24T20:55:07.580Z,83.22
2022-10-24T21:00:17.813Z,83.58
2022-10-24T21:05:20.756Z,83.46
2022-10-24T21:10:24.959Z,83.79
2022-10-24T21:15:27.634Z,83.86
2022-10-24T21:20:30.278Z,83.67
2022-10-24T21:25:34.339Z,83.81
2022-10-24T21:30:37.050Z,83.99
2022-10-24T21:35:40.019Z,84.01
2022-10-24T21:40:44.055Z,84.02
2022-10-24T21:45:46.736Z,84.14
2022-10-24T21:50:49.327Z,84.45
2022-10-24T21:55:53.272Z,84.30
2022-10-24T22:00:55.922Z,84.36
2022-10-24T22:05:58.672Z,84.58
2022-10-24T22:11:04.801Z,84.58
2022-10-24T22:16:08.628Z,84.56
2022-10-24T22:21:18.624Z,84.55
2022-10-24T22:26:22.791Z,84.65
2022-10-24T22:31:26.943Z,84.48
2022-10-24T22:36:43.348Z,84.30
2022-10-24T22:41:48.529Z,84.44
2022-10-24T22:47:03.895Z,84.50
2022-10-24T22:52:07.120Z,84.65
2022-10-24T22:57:11.813Z,84.61
2022-10-24T23:02:25.806Z,84.47
2022-10-24T23:07:34.205Z,84.88
2022-10-24T23:12:38.991Z,84.78
2022-10-24T23:17:42.382Z,84.71
2022-10-24T23:22:48.466Z,84.84
2022-10-24T23:28:02.549Z,84.74
2022-10-24T23:33:05.743Z,84.90
2022-10-24T23:38:11.081Z,84.90
2022-10-24T23:43:17.113Z,84.88
2022-10-24T23:48:23.344Z,85.00
2022-10-24T23:53:31.297Z,84.99
2022-10-24T23:58:35.261Z,85.07
